Time;durP1;ratioP1;P1;durP2;ratioP2;P2;SDS_P1;SDS_P2;PMS_P1;PMS_P2;Temp;Humidity;BMP_temperature;BMP_pressure;BME280_temperature;BME280_humidity;BME280_pressure;Samples;Min_cycle;Max_cycle;Signal;HPM_P1;HPM_P2
2023/06/15 00:01:59;;;;;;;5.90;3.70;;;;;;;-148.88;64.53;-17125.47;4955453;28;20034;-72
2023/06/15 00:04:24;;;;;;;5.25;3.70;;;;;;;-148.88;63.47;-17125.47;4955720;28;20398;-72
2023/06/15 00:06:50;;;;;;;7.13;3.40;;;;;;;-148.88;62.12;-17125.47;4955550;28;20110;-72
2023/06/15 00:09:15;;;;;;;6.88;3.08;;;;;;;-148.88;62.53;-17125.47;4955355;28;20027;-72
2023/06/15 00:11:40;;;;;;;6.72;3.40;;;;;;;-148.88;62.90;-17125.47;4955452;28;20038;-72
2023/06/15 00:14:07;;;;;;;8.52;3.75;;;;;;;-148.88;63.95;-17125.47;4955299;28;20114;-72
2023/06/15 00:16:32;;;;;;;6.03;3.95;;;;;;;-148.88;63.63;-17125.47;4955479;28;20035;-72
2023/06/15 00:18:58;;;;;;;8.77;3.50;;;;;;;-148.88;63.47;-17125.47;4955234;28;20134;-72
2023/06/15 00:21:27;;;;;;;6.28;4.05;;;;;;;-148.88;63.69;-17125.47;4955212;28;20038;-72
2023/06/15 00:23:52;;;;;;;7.25;3.40;;;;;;;-148.88;64.62;-17125.47;4955236;28;20042;-72
2023/06/15 00:26:17;;;;;;;6.50;3.90;;;;;;;-148.88;65.44;-17125.47;4954998;28;20027;-73
2023/06/15 00:29:16;;;;;;;5.85;3.85;;;;;;;-148.88;65.23;-17125.47;4955125;28;20031;-72
2023/06/15 00:31:42;;;;;;;7.75;4.18;;;;;;;-148.88;66.60;-17125.47;4955000;29;20035;-72
2023/06/15 00:34:07;;;;;;;7.75;4.10;;;;;;;-148.88;67.39;-17125.47;4954933;28;20030;-72
2023/06/15 00:36:32;;;;;;;7.20;4.10;;;;;;;-148.88;67.58;-17125.47;4954971;28;20058;-72
2023/06/15 00:38:58;;;;;;;5.05;4.00;;;;;;;-148.88;67.21;-17125.47;4954884;28;20074;-72
2023/06/15 00:41:23;;;;;;;4.82;4.03;;;;;;;-148.88;67.33;-17125.47;4955009;28;20541;-72
2023/06/15 00:43:48;;;;;;;8.25;4.00;;;;;;;-148.88;67.86;-17125.47;4955141;28;20023;-72
2023/06/15 00:46:15;;;;;;;7.97;4.28;;;;;;;-148.88;68.29;-17125.47;4955079;28;20024;-72
2023/06/15 00:48:41;;;;;;;7.00;4.05;;;;;;;-148.88;68.09;-17125.47;4953605;29;20027;-72
2023/06/15 00:51:07;;;;;;;8.45;4.30;;;;;;;-148.88;69.81;-17125.47;4954841;28;20050;-72
2023/06/15 00:53:33;;;;;;;8.52;4.00;;;;;;;-148.88;70.46;-17125.47;4954774;28;20031;-72
2023/06/15 00:55:59;;;;;;;7.63;4.35;;;;;;;-148.88;70.86;-17125.47;4954969;28;20074;-72
2023/06/15 00:58:25;;;;;;;6.95;4.22;;;;;;;-148.88;71.11;-17125.47;4954985;28;20023;-72
2023/06/15 01:00:53;;;;;;;7.53;5.00;;;;;;;-148.88;72.52;-17125.47;4955333;28;20033;-72
2023/06/15 01:03:20;;;;;;;9.15;5.00;;;;;;;-148.88;73.46;-17125.47;4955294;28;20023;-72
2023/06/15 01:05:47;;;;;;;6.82;4.38;;;;;;;-148.88;74.32;-17125.47;4953361;29;20027;-72
2023/06/15 01:08:15;;;;;;;7.68;4.60;;;;;;;-148.88;75.28;-17125.47;4955006;28;20074;-72
2023/06/15 01:10:42;;;;;;;7.00;4.78;;;;;;;-148.88;74.88;-17125.47;4954604;28;20051;-72
2023/06/15 01:13:12;;;;;;;9.18;4.90;;;;;;;-148.88;74.76;-17125.47;4963265;23;20138;-86
2023/06/15 01:15:37;;;;;;;6.68;4.75;;;;;;;-148.88;75.17;-17125.47;4954735;29;20027;-86
2023/06/15 01:18:04;;;;;;;6.18;4.70;;;;;;;-148.88;75.43;-17125.47;4954683;29;20398;-86
2023/06/15 01:20:39;;;;;;;7.15;4.35;;;;;;;-148.88;75.33;-17125.47;4969433;28;20400;-86
2023/06/15 01:23:43;;;;;;;9.02;5.00;;;;;;;-148.88;75.80;-17125.47;4953968;29;20023;-86
2023/06/15 01:26:11;;;;;;;7.10;4.35;;;;;;;-148.88;76.39;-17125.47;4954121;29;20114;-86
2023/06/15 01:28:41;;;;;;;6.35;4.40;;;;;;;-148.88;75.45;-17125.47;4954618;28;20389;-86
2023/06/15 01:31:08;;;;;;;7.82;4.32;;;;;;;-148.88;76.44;-17125.47;4953435;29;20035;-86
2023/06/15 01:33:42;;;;;;;6.70;4.63;;;;;;;-148.88;76.17;-17125.47;4954180;29;20034;-86
2023/06/15 01:36:07;;;;;;;7.88;4.60;;;;;;;-148.88;76.60;-17125.47;4953437;29;20037;-86
2023/06/15 01:38:33;;;;;;;8.40;4.93;;;;;;;-148.88;75.90;-17125.47;4953575;29;20027;-86
2023/06/15 01:40:59;;;;;;;6.80;4.22;;;;;;;-148.88;76.86;-17125.47;4954692;29;20039;-86
2023/06/15 01:43:28;;;;;;;6.88;4.60;;;;;;;-148.88;77.33;-17125.47;4954662;28;20124;-86
2023/06/15 01:45:55;;;;;;;8.48;4.93;;;;;;;-148.88;78.00;-17125.47;4954447;28;20054;-86
2023/06/15 01:48:20;;;;;;;5.93;4.40;;;;;;;-148.88;77.62;-17125.47;4953208;28;20490;-86
2023/06/15 01:50:47;;;;;;;5.28;4.35;;;;;;;-148.88;77.78;-17125.47;4957536;29;20031;-86
2023/06/15 01:53:13;;;;;;;9.15;4.68;;;;;;;-148.88;77.25;-17125.47;4956640;29;20427;-86
2023/06/15 01:55:38;;;;;;;7.25;4.80;;;;;;;-148.88;77.21;-17125.47;4958080;29;20478;-86
2023/06/15 01:58:03;;;;;;;8.48;4.18;;;;;;;-148.88;76.91;-17125.47;4957812;29;20025;-86
2023/06/15 02:00:29;;;;;;;8.05;4.53;;;;;;;-148.88;77.14;-17125.47;4956507;28;20063;-86
2023/06/15 02:02:54;;;;;;;5.80;4.53;;;;;;;-148.88;77.68;-17125.47;4957766;29;20023;-86
2023/06/15 02:05:20;;;;;;;8.20;4.60;;;;;;;-148.88;77.88;-17125.47;4956652;29;20023;-86
2023/06/15 02:07:46;;;;;;;6.43;4.55;;;;;;;-148.88;77.78;-17125.47;4956525;29;20081;-86
2023/06/15 02:10:11;;;;;;;9.57;4.50;;;;;;;-148.88;78.18;-17125.47;4957735;28;20030;-86
2023/06/15 02:12:36;;;;;;;6.45;4.20;;;;;;;-148.88;77.41;-17125.47;4957276;28;20024;-86
2023/06/15 02:15:03;;;;;;;7.30;4.55;;;;;;;-148.88;77.53;-17125.47;4956490;29;20351;-86
2023/06/15 02:17:30;;;;;;;8.40;4.28;;;;;;;-148.88;77.72;-17125.47;4956591;29;20031;-86
2023/06/15 02:19:56;;;;;;;7.32;4.18;;;;;;;-148.88;77.35;-17125.47;4956369;28;20058;-86
2023/06/15 02:22:22;;;;;;;8.95;4.40;;;;;;;-148.88;76.92;-17125.47;4956192;28;20085;-86
2023/06/15 02:24:47;;;;;;;8.88;4.35;;;;;;;-148.88;76.62;-17125.47;4957500;28;20031;-86
2023/06/15 02:27:13;;;;;;;5.60;4.07;;;;;;;-148.88;76.16;-17125.47;4956200;29;20497;-86
2023/06/15 02:29:38;;;;;;;8.70;4.82;;;;;;;-148.88;76.69;-17125.47;4957393;28;20030;-86
2023/06/15 02:32:04;;;;;;;8.10;4.95;;;;;;;-148.88;76.91;-17125.47;4955949;29;20398;-86
2023/06/15 02:34:30;;;;;;;7.78;4.82;;;;;;;-148.88;77.17;-17125.47;4957352;28;20027;-86
2023/06/15 02:36:56;;;;;;;7.13;4.68;;;;;;;-148.88;76.82;-17125.47;4957356;28;20022;-86
2023/06/15 02:39:21;;;;;;;8.90;5.07;;;;;;;-148.88;77.43;-17125.47;4957344;28;20082;-86
2023/06/15 02:41:47;;;;;;;7.13;4.68;;;;;;;-148.88;77.77;-17125.47;4957033;29;20093;-86
2023/06/15 02:44:14;;;;;;;7.85;5.15;;;;;;;-148.88;78.16;-17125.47;4956902;29;20035;-86
2023/06/15 02:46:40;;;;;;;7.47;4.80;;;;;;;-148.88;77.58;-17125.47;4956935;28;20027;-85
2023/06/15 02:49:05;;;;;;;7.45;5.25;;;;;;;-148.88;78.10;-17125.47;4957230;28;20476;-85
2023/06/15 02:51:31;;;;;;;8.13;5.25;;;;;;;-148.88;78.89;-17125.47;4957307;28;20030;-86
2023/06/15 02:53:56;;;;;;;9.20;4.90;;;;;;;-148.88;78.80;-17125.47;4955668;29;20019;-86
2023/06/15 02:56:21;;;;;;;6.28;4.40;;;;;;;-148.88;78.18;-17125.47;4956830;28;20431;-86
2023/06/15 02:59:07;;;;;;;7.57;4.78;;;;;;;-148.88;78.21;-17125.47;4956940;28;20113;-84
2023/06/15 03:01:38;;;;;;;11.18;5.03;;;;;;;-148.88;77.95;-17125.47;4955698;28;20031;-85
2023/06/15 03:04:13;;;;;;;8.48;4.65;;;;;;;-148.88;77.46;-17125.47;4956800;28;20023;-85
2023/06/15 03:06:40;;;;;;;7.45;5.13;;;;;;;-148.88;78.27;-17125.47;4956844;28;20026;-84
2023/06/15 03:09:07;;;;;;;9.45;5.18;;;;;;;-148.88;79.63;-17125.47;4956593;28;20027;-84
2023/06/15 03:11:33;;;;;;;6.57;4.68;;;;;;;-148.88;80.11;-17125.47;4956437;28;20101;-86
2023/06/15 03:13:58;;;;;;;6.97;4.80;;;;;;;-148.88;79.80;-17125.47;4955163;29;20510;-86
2023/06/15 03:16:25;;;;;;;11.52;5.10;;;;;;;-148.88;81.53;-17125.47;4956450;28;20023;-84
2023/06/15 03:18:52;;;;;;;9.63;5.05;;;;;;;-148.88;81.63;-17125.47;4956444;28;20019;-85
2023/06/15 03:21:20;;;;;;;8.68;5.53;;;;;;;-148.88;82.65;-17125.47;4955054;29;20019;-84
2023/06/15 03:23:45;;;;;;;10.15;5.30;;;;;;;-148.88;85.66;-17125.47;4956355;28;20126;-84
2023/06/15 03:26:11;;;;;;;6.78;5.15;;;;;;;-148.88;86.93;-17125.47;4955344;29;20056;-85
2023/06/15 03:28:38;;;;;;;7.20;5.65;;;;;;;-148.88;88.00;-17125.47;4956448;28;20102;-84
2023/06/15 03:31:04;;;;;;;7.72;5.60;;;;;;;-148.88;87.49;-17125.47;4956160;28;20026;-84
2023/06/15 03:33:30;;;;;;;9.35;5.15;;;;;;;-148.88;87.85;-17125.47;4963941;28;20030;-86
2023/06/15 03:35:57;;;;;;;9.55;5.60;;;;;;;-148.88;88.26;-17125.47;4956627;28;20035;-85
2023/06/15 03:38:23;;;;;;;7.55;5.10;;;;;;;-148.88;87.57;-17125.47;4955054;29;20094;-86
2023/06/15 03:40:48;;;;;;;7.53;5.25;;;;;;;-148.88;88.58;-17125.47;4956162;28;20050;-85
2023/06/15 03:43:14;;;;;;;7.47;5.13;;;;;;;-148.88;89.04;-17125.47;4956045;28;20106;-85
2023/06/15 03:45:40;;;;;;;6.72;5.50;;;;;;;-148.88;88.35;-17125.47;4955952;28;20027;-85
2023/06/15 03:48:06;;;;;;;8.68;5.07;;;;;;;-148.88;88.26;-17125.47;4955873;28;20031;-85
2023/06/15 03:50:31;;;;;;;7.65;5.30;;;;;;;-148.88;87.86;-17125.47;4955745;28;20034;-85
2023/06/15 03:52:56;;;;;;;8.20;5.10;;;;;;;-148.88;88.38;-17125.47;4955664;28;20023;-86
2023/06/15 03:55:22;;;;;;;7.78;5.25;;;;;;;-148.88;87.89;-17125.47;4955715;28;20039;-85
2023/06/15 03:57:47;;;;;;;9.85;5.10;;;;;;;-148.88;87.62;-17125.47;4954416;29;20487;-85
2023/06/15 04:00:13;;;;;;;7.50;5.00;;;;;;;-148.88;87.68;-17125.47;4955762;28;20039;-85
2023/06/15 04:02:39;;;;;;;6.82;5.18;;;;;;;-148.88;87.11;-17125.47;4955713;28;20037;-85
2023/06/15 04:05:05;;;;;;;7.43;4.93;;;;;;;-148.88;87.01;-17125.47;4955535;28;20023;-85
2023/06/15 04:07:30;;;;;;;6.78;4.53;;;;;;;-148.88;85.67;-17125.47;4954235;29;20493;-85
2023/06/15 04:09:56;;;;;;;9.65;4.82;;;;;;;-148.88;85.11;-17125.47;4955525;28;20397;-86
2023/06/15 04:12:22;;;;;;;6.97;4.82;;;;;;;-148.88;84.90;-17125.47;4954961;28;20042;-85
2023/06/15 04:14:47;;;;;;;8.68;5.63;;;;;;;-148.88;83.53;-17125.47;4955672;28;20031;-85
2023/06/15 04:17:13;;;;;;;6.97;4.90;;;;;;;-148.88;82.89;-17125.47;4954115;29;20086;-85
2023/06/15 04:19:38;;;;;;;6.53;4.72;;;;;;;-148.88;84.98;-17125.47;4955256;28;20027;-85
2023/06/15 04:22:05;;;;;;;6.28;4.95;;;;;;;-148.88;85.76;-17125.47;4955447;28;20078;-85
2023/06/15 04:24:30;;;;;;;8.02;4.80;;;;;;;-148.88;86.69;-17125.47;4953938;28;20023;-85
2023/06/15 04:26:57;;;;;;;9.10;5.40;;;;;;;-148.88;86.56;-17125.47;4955559;28;20034;-90
2023/06/15 04:29:22;;;;;;;5.88;4.90;;;;;;;-148.88;88.85;-17125.47;4954207;28;20031;-85
2023/06/15 04:31:54;;;;;;;8.25;5.20;;;;;;;-148.88;91.45;-17125.47;4955048;28;20110;-84
2023/06/15 04:34:20;;;;;;;9.07;5.78;;;;;;;-148.88;90.24;-17125.47;4955051;28;20484;-85
2023/06/15 04:36:48;;;;;;;9.80;6.18;;;;;;;-148.88;93.09;-17125.47;4955159;28;20555;-84
2023/06/15 04:39:14;;;;;;;9.38;6.20;;;;;;;-148.88;93.24;-17125.47;4955236;29;20027;-87
2023/06/15 04:41:39;;;;;;;9.80;6.20;;;;;;;-148.88;92.75;-17125.47;4954033;29;20024;-87
2023/06/15 04:44:05;;;;;;;9.65;5.78;;;;;;;-148.88;92.35;-17125.47;4954066;29;20027;-87
2023/06/15 04:46:32;;;;;;;9.35;6.10;;;;;;;-148.88;91.50;-17125.47;4955183;28;20027;-86
2023/06/15 04:48:58;;;;;;;8.65;5.57;;;;;;;-148.88;91.44;-17125.47;4955423;28;20039;-86
2023/06/15 04:51:23;;;;;;;7.80;5.75;;;;;;;-148.88;90.07;-17125.47;4955063;28;20074;-86
2023/06/15 04:53:49;;;;;;;7.65;4.97;;;;;;;-148.88;89.31;-17125.47;4955259;28;20027;-86
2023/06/15 04:56:15;;;;;;;9.20;5.45;;;;;;;-148.88;90.78;-17125.47;4954007;29;20034;-87
2023/06/15 04:58:40;;;;;;;10.60;5.25;;;;;;;-148.88;90.85;-17125.47;4954961;29;20468;-86
2023/06/15 05:01:06;;;;;;;7.72;5.95;;;;;;;-148.88;88.77;-17125.47;4955062;28;20050;-86
2023/06/15 05:03:33;;;;;;;10.80;5.45;;;;;;;-148.88;89.23;-17125.47;4954887;28;20027;-87
2023/06/15 05:05:58;;;;;;;8.30;5.88;;;;;;;-148.88;91.61;-17125.47;4954882;28;20512;-86
2023/06/15 05:08:24;;;;;;;9.02;5.53;;;;;;;-148.88;90.76;-17125.47;4955350;28;20026;-86
2023/06/15 05:10:49;;;;;;;15.27;6.00;;;;;;;-148.88;89.80;-17125.47;4955617;28;20062;-84
2023/06/15 05:13:15;;;;;;;8.10;5.60;;;;;;;-148.88;90.18;-17125.47;4955815;28;20078;-86
2023/06/15 05:15:40;;;;;;;12.40;5.50;;;;;;;-148.88;92.80;-17125.47;4954023;29;20401;-87
2023/06/15 05:18:06;;;;;;;11.10;5.97;;;;;;;-148.88;92.24;-17125.47;4953751;29;20038;-86
2023/06/15 05:20:31;;;;;;;8.10;5.78;;;;;;;-148.88;91.06;-17125.47;4953856;28;20063;-83
2023/06/15 05:22:57;;;;;;;10.32;6.18;;;;;;;-148.88;91.47;-17125.47;4953502;28;20027;-85
2023/06/15 05:25:22;;;;;;;10.38;6.50;;;;;;;-148.88;93.08;-17125.47;4957782;29;20035;-86
2023/06/15 05:27:48;;;;;;;10.20;6.10;;;;;;;-148.88;92.81;-17125.47;4959048;28;20035;-85
2023/06/15 05:30:13;;;;;;;8.65;6.63;;;;;;;-148.88;90.04;-17125.47;4957098;29;20086;-85
2023/06/15 05:32:39;;;;;;;9.27;6.22;;;;;;;-148.88;89.14;-17125.47;4958420;28;20118;-85
2023/06/15 05:35:06;;;;;;;10.55;6.32;;;;;;;-148.88;88.76;-17125.47;4957230;29;20062;-85
2023/06/15 05:37:33;;;;;;;10.00;6.93;;;;;;;-148.88;89.02;-17125.47;4957050;28;20026;-85
2023/06/15 05:39:58;;;;;;;9.75;6.07;;;;;;;-148.88;88.87;-17125.47;4958035;28;20027;-86
2023/06/15 05:42:26;;;;;;;12.63;5.82;;;;;;;-148.88;88.73;-17125.47;4958177;29;20030;-85
2023/06/15 05:44:51;;;;;;;10.52;6.32;;;;;;;-148.88;90.30;-17125.47;4958086;28;20038;-84
2023/06/15 05:47:17;;;;;;;8.95;6.88;;;;;;;-148.88;92.31;-17125.47;4958483;28;20022;-87
2023/06/15 05:49:43;;;;;;;8.88;5.93;;;;;;;-148.88;93.76;-17125.47;4958641;28;20470;-86
2023/06/15 05:52:09;;;;;;;11.20;6.22;;;;;;;-148.88;95.20;-17125.47;4958007;28;20038;-87
2023/06/15 05:54:34;;;;;;;10.90;7.15;;;;;;;-148.88;97.16;-17125.47;4958418;28;20026;-87
2023/06/15 05:57:01;;;;;;;7.78;6.43;;;;;;;-148.88;96.83;-17125.47;4956854;29;20409;-86
2023/06/15 05:59:27;;;;;;;10.57;6.53;;;;;;;-148.88;96.83;-17125.47;4957968;28;20482;-86
2023/06/15 06:01:52;;;;;;;9.35;6.70;;;;;;;-148.88;93.21;-17125.47;4957920;28;20027;-86
2023/06/15 06:04:17;;;;;;;11.60;7.18;;;;;;;-148.88;92.18;-17125.47;4958242;29;20027;-88
2023/06/15 06:06:43;;;;;;;9.77;6.70;;;;;;;-148.88;92.72;-17125.47;4956629;29;20054;-87
2023/06/15 06:09:08;;;;;;;10.85;7.05;;;;;;;-148.88;92.36;-17125.47;4957822;29;20024;-86
2023/06/15 06:11:35;;;;;;;9.07;6.20;;;;;;;-148.88;91.63;-17125.47;4958115;28;20043;-86
2023/06/15 06:14:00;;;;;;;10.30;6.45;;;;;;;-148.88;89.99;-17125.47;4956778;28;20027;-86
2023/06/15 06:16:26;;;;;;;11.20;6.40;;;;;;;-148.88;88.43;-17125.47;4956882;28;20078;-85
2023/06/15 06:18:52;;;;;;;11.20;6.53;;;;;;;-148.88;89.04;-17125.47;4960894;28;20441;-85
2023/06/15 06:21:17;;;;;;;9.90;6.68;;;;;;;-148.88;89.41;-17125.47;4957575;28;20375;-84
2023/06/15 06:23:42;;;;;;;11.38;6.60;;;;;;;-148.88;88.36;-17125.47;4956460;29;20019;-85
2023/06/15 06:26:08;;;;;;;11.68;7.03;;;;;;;-148.88;87.76;-17125.47;4956377;29;20023;-85
2023/06/15 06:28:33;;;;;;;8.68;6.15;;;;;;;-148.88;87.13;-17125.47;4956440;29;20115;-86
2023/06/15 06:30:58;;;;;;;8.77;6.40;;;;;;;-148.88;86.67;-17125.47;4956209;29;20461;-86
2023/06/15 06:33:24;;;;;;;11.82;6.82;;;;;;;-148.88;87.30;-17125.47;4956061;29;20027;-84
2023/06/15 06:35:49;;;;;;;11.65;7.10;;;;;;;-148.88;85.86;-17125.47;4957603;28;20042;-85
2023/06/15 06:38:14;;;;;;;11.00;6.35;;;;;;;-148.88;87.11;-17125.47;4957466;29;20027;-88
2023/06/15 06:40:40;;;;;;;9.23;6.70;;;;;;;-148.88;87.16;-17125.47;4957107;28;20466;-86
2023/06/15 06:43:05;;;;;;;8.90;6.10;;;;;;;-148.88;85.74;-17125.47;4957276;28;20537;-85
2023/06/15 06:45:31;;;;;;;11.00;5.90;;;;;;;-148.88;85.49;-17125.47;4955792;29;20482;-87
2023/06/15 06:47:56;;;;;;;8.27;5.70;;;;;;;-148.88;85.00;-17125.47;4957009;29;20039;-89
2023/06/15 06:50:21;;;;;;;9.27;5.78;;;;;;;-148.88;82.49;-17125.47;4957070;28;20031;-90
2023/06/15 06:52:47;;;;;;;9.52;5.00;;;;;;;-148.88;79.61;-17125.47;4955810;29;20095;-86
2023/06/15 06:55:12;;;;;;;7.93;5.50;;;;;;;-148.88;81.75;-17125.47;4955774;28;20090;-86
2023/06/15 06:57:37;;;;;;;7.82;5.15;;;;;;;-148.88;80.45;-17125.47;4957200;28;20063;-87
2023/06/15 07:00:04;;;;;;;11.30;5.00;;;;;;;-148.88;80.42;-17125.47;4957147;28;20027;-86
2023/06/15 07:02:32;;;;;;;6.30;4.72;;;;;;;-148.88;77.79;-17125.47;4957088;28;20031;-86
2023/06/15 07:04:57;;;;;;;9.18;4.70;;;;;;;-148.88;77.93;-17125.47;4955543;28;20115;-86
2023/06/15 07:07:22;;;;;;;5.82;4.45;;;;;;;-148.88;75.06;-17125.47;4955527;29;20059;-86
2023/06/15 07:09:49;;;;;;;8.70;4.90;;;;;;;-148.88;76.05;-17125.47;4955742;29;20027;-86
2023/06/15 07:12:14;;;;;;;7.97;4.70;;;;;;;-148.88;75.14;-17125.47;4956110;28;20047;-86
2023/06/15 07:14:40;;;;;;;7.95;4.57;;;;;;;-148.88;73.24;-17125.47;4955269;29;20024;-86
2023/06/15 07:17:05;;;;;;;9.18;4.47;;;;;;;-148.88;72.72;-17125.47;4956664;28;20035;-86
2023/06/15 07:19:31;;;;;;;7.18;4.70;;;;;;;-148.88;74.00;-17125.47;4956506;28;20031;-88
2023/06/15 07:21:56;;;;;;;6.85;4.32;;;;;;;-148.88;72.24;-17125.47;4956589;29;20027;-87
2023/06/15 07:24:21;;;;;;;9.02;4.95;;;;;;;-148.88;71.79;-17125.47;4956591;29;20066;-88
2023/06/15 07:26:47;;;;;;;9.02;4.40;;;;;;;-148.88;70.83;-17125.47;4956867;29;20023;-88
2023/06/15 07:29:12;;;;;;;7.82;4.70;;;;;;;-148.88;67.48;-17125.47;4956215;28;20110;-85
2023/06/15 07:31:37;;;;;;;11.35;4.35;;;;;;;-148.88;69.11;-17125.47;4956240;28;20055;-90
2023/06/15 07:34:03;;;;;;;9.45;4.50;;;;;;;-148.88;67.21;-17125.47;4956298;29;20082;-90
2023/06/15 07:36:28;;;;;;;10.15;4.50;;;;;;;-148.88;63.43;-17125.47;4955327;29;20065;-89
2023/06/15 07:38:54;;;;;;;6.13;4.05;;;;;;;-148.88;66.26;-17125.47;4955064;29;20163;-85
2023/06/15 07:41:20;;;;;;;7.00;4.22;;;;;;;-148.88;63.04;-17125.47;4956397;28;20081;-89
2023/06/15 07:43:45;;;;;;;6.10;4.15;;;;;;;-148.88;64.42;-17125.47;4956137;28;20027;-89
2023/06/15 07:46:10;;;;;;;5.97;3.88;;;;;;;-148.88;62.44;-17125.47;4955869;28;20023;-88
2023/06/15 07:48:36;;;;;;;7.88;3.60;;;;;;;-148.88;60.24;-17125.47;4955586;29;20026;-86
2023/06/15 07:51:01;;;;;;;6.40;4.00;;;;;;;-148.88;60.96;-17125.47;4954600;28;20027;-86
2023/06/15 07:53:27;;;;;;;14.50;3.85;;;;;;;-148.88;57.16;-17125.47;4957150;28;20023;-86
2023/06/15 07:55:52;;;;;;;7.97;3.70;;;;;;;-148.88;59.33;-17125.47;4956312;29;20037;-87
2023/06/15 07:58:17;;;;;;;8.93;3.30;;;;;;;-148.88;55.76;-17125.47;4955820;28;20109;-87
2023/06/15 08:00:43;;;;;;;5.13;3.28;;;;;;;-148.88;51.90;-17125.47;4956102;28;20034;-89
2023/06/15 08:03:08;;;;;;;6.10;3.40;;;;;;;-148.88;51.31;-17125.47;4955702;29;20025;-87
2023/06/15 08:05:33;;;;;;;8.35;3.10;;;;;;;-148.88;51.63;-17125.47;4955924;28;20066;-88
2023/06/15 08:07:59;;;;;;;10.13;3.40;;;;;;;-148.88;51.41;-17125.47;4954735;29;20043;-88
2023/06/15 08:10:24;;;;;;;6.20;3.38;;;;;;;-148.88;51.55;-17125.47;4954452;29;20027;-88
2023/06/15 08:12:50;;;;;;;7.20;3.35;;;;;;;-148.88;54.24;-17125.47;4955483;28;20039;-88
2023/06/15 08:15:15;;;;;;;10.02;3.55;;;;;;;-148.88;52.85;-17125.47;4954321;29;20101;-88
2023/06/15 08:17:41;;;;;;;5.97;3.35;;;;;;;-148.88;50.30;-17125.47;4954274;29;20034;-88
2023/06/15 08:20:09;;;;;;;6.75;3.22;;;;;;;-148.88;48.63;-17125.47;4954343;29;20121;-89
2023/06/15 08:22:34;;;;;;;6.60;3.00;;;;;;;-148.88;48.83;-17125.47;4954579;28;20406;-88
2023/06/15 08:25:00;;;;;;;7.68;3.00;;;;;;;-148.88;47.58;-17125.47;4955489;28;20414;-89
2023/06/15 08:27:25;;;;;;;4.72;2.80;;;;;;;-148.88;46.05;-17125.47;4954174;28;20061;-89
2023/06/15 08:29:51;;;;;;;7.15;3.45;;;;;;;-148.88;44.23;-17125.47;4955365;29;20038;-88
2023/06/15 08:32:16;;;;;;;4.15;3.00;;;;;;;-148.88;43.97;-17125.47;4954298;29;20038;-89
2023/06/15 08:34:44;;;;;;;5.82;3.20;;;;;;;-148.88;44.10;-17125.47;4955279;28;20019;-88
2023/06/15 08:37:11;;;;;;;5.72;3.25;;;;;;;-148.88;44.46;-17125.47;4954439;29;20039;-89
2023/06/15 08:39:38;;;;;;;5.32;3.05;;;;;;;-148.88;42.90;-17125.47;4954201;29;20066;-87
2023/06/15 08:42:03;;;;;;;8.15;3.05;;;;;;;-148.88;41.74;-17125.47;4955216;28;20397;-90
2023/06/15 08:44:33;;;;;;;5.35;3.00;;;;;;;-148.88;43.08;-17125.47;4955362;29;20027;-89
2023/06/15 08:47:01;;;;;;;5.20;2.88;;;;;;;-148.88;40.16;-17125.47;4955767;28;20406;-89
2023/06/15 08:49:28;;;;;;;6.60;2.85;;;;;;;-148.88;39.61;-17125.47;4955084;28;20033;-88
2023/06/15 08:51:54;;;;;;;4.65;2.92;;;;;;;-148.88;40.64;-17125.47;4955322;28;20027;-88
2023/06/15 08:54:21;;;;;;;5.85;3.00;;;;;;;-148.88;38.35;-17125.47;4954511;29;20310;-89
2023/06/15 08:56:46;;;;;;;6.50;2.88;;;;;;;-148.88;38.66;-17125.47;4955309;28;20048;-87
2023/06/15 08:59:12;;;;;;;7.47;2.70;;;;;;;-148.88;37.01;-17125.47;4956250;28;20035;-90
2023/06/15 09:01:41;;;;;;;5.85;2.13;;;;;;;-148.88;35.95;-17125.47;4957993;29;20027;-89
2023/06/15 09:04:07;;;;;;;3.25;2.08;;;;;;;-148.88;34.53;-17125.47;4959159;28;20529;-87
2023/06/15 09:06:33;;;;;;;3.28;2.30;;;;;;;-148.88;34.34;-17125.47;4959055;28;20552;-89
2023/06/15 09:08:58;;;;;;;5.68;2.45;;;;;;;-148.88;34.94;-17125.47;4958894;29;20035;-88
2023/06/15 09:11:24;;;;;;;6.05;2.70;;;;;;;-148.88;35.07;-17125.47;4959789;28;20047;-89
2023/06/15 09:13:50;;;;;;;6.22;2.70;;;;;;;-148.88;34.42;-17125.47;4960363;28;20034;-89
2023/06/15 09:16:16;;;;;;;7.85;2.70;;;;;;;-148.88;34.66;-17125.47;4959404;28;20401;-88
2023/06/15 09:18:46;;;;;;;4.85;2.60;;;;;;;-148.88;35.44;-17125.47;4959287;28;20030;-89
2023/06/15 09:21:13;;;;;;;5.00;2.42;;;;;;;-148.88;37.45;-17125.47;4959635;28;20042;-87
2023/06/15 09:23:43;;;;;;;12.77;3.25;;;;;;;-148.88;37.08;-17125.47;4959280;28;20047;-86
2023/06/15 09:26:09;;;;;;;5.80;2.45;;;;;;;-148.88;35.74;-17125.47;4958598;28;20034;-88
2023/06/15 09:28:42;;;;;;;5.32;3.17;;;;;;;-148.88;37.50;-17125.47;4959134;29;20540;-87
2023/06/15 09:31:09;;;;;;;4.25;2.40;;;;;;;-148.88;36.14;-17125.47;4958976;28;20031;-86
2023/06/15 09:33:34;;;;;;;4.47;2.70;;;;;;;-148.88;36.08;-17125.47;4959705;28;20031;-88
2023/06/15 09:36:02;;;;;;;7.45;2.85;;;;;;;-148.88;33.67;-17125.47;4959318;29;20035;-87
2023/06/15 09:38:30;;;;;;;6.82;2.70;;;;;;;-148.88;33.31;-17125.47;4959178;28;20106;-88
2023/06/15 09:40:55;;;;;;;3.45;2.30;;;;;;;-148.88;33.67;-17125.47;4958788;28;20035;-87
2023/06/15 09:43:21;;;;;;;6.93;2.72;;;;;;;-148.88;35.78;-17125.47;4957715;29;20031;-88
2023/06/15 09:45:51;;;;;;;5.75;2.58;;;;;;;-148.88;33.28;-17125.47;4959437;28;20027;-88
2023/06/15 09:48:16;;;;;;;4.45;2.25;;;;;;;-148.88;32.68;-17125.47;4959003;28;20031;-87
2023/06/15 09:50:42;;;;;;;3.78;2.45;;;;;;;-148.88;34.68;-17125.47;4959316;28;20035;-88
2023/06/15 09:53:11;;;;;;;5.72;2.85;;;;;;;-148.88;31.80;-17125.47;4958246;29;20023;-85
2023/06/15 09:55:43;;;;;;;4.90;2.83;;;;;;;-148.88;32.27;-17125.47;4958271;28;20063;-85
2023/06/15 09:58:12;;;;;;;5.68;3.00;;;;;;;-148.88;30.95;-17125.47;4958161;28;20086;-88
2023/06/15 10:00:38;;;;;;;6.25;2.92;;;;;;;-148.88;32.13;-17125.47;4958316;28;20027;-90
2023/06/15 10:03:06;;;;;;;6.72;2.67;;;;;;;-148.88;32.10;-17125.47;4958762;28;20059;-88
2023/06/15 10:05:32;;;;;;;5.78;2.55;;;;;;;-148.88;30.29;-17125.47;4958053;28;20438;-89
2023/06/15 10:08:02;;;;;;;4.47;2.60;;;;;;;-148.88;31.44;-17125.47;4957746;28;20078;-90
2023/06/15 10:10:30;;;;;;;6.13;2.50;;;;;;;-148.88;31.51;-17125.47;4957391;28;20033;-87
2023/06/15 10:12:57;;;;;;;3.78;2.58;;;;;;;-148.88;31.05;-17125.47;4958498;28;20118;-86
2023/06/15 10:15:24;;;;;;;5.60;2.63;;;;;;;-148.88;31.50;-17125.47;4957544;28;20066;-89
2023/06/15 10:17:52;;;;;;;4.35;2.60;;;;;;;-148.88;30.97;-17125.47;4957717;28;20529;-87
2023/06/15 10:20:21;;;;;;;5.97;2.60;;;;;;;-148.88;31.26;-17125.47;4957584;28;20023;-85
2023/06/15 10:23:08;;;;;;;6.68;2.80;;;;;;;-148.88;32.43;-17125.47;4957432;28;20027;-86
2023/06/15 10:25:35;;;;;;;7.00;2.80;;;;;;;-148.88;30.53;-17125.47;4958024;28;20030;-85
2023/06/15 10:28:09;;;;;;;6.35;2.58;;;;;;;-148.88;30.21;-17125.47;4957510;28;20498;-84
2023/06/15 10:31:03;;;;;;;5.43;2.60;;;;;;;-148.88;29.68;-17125.47;4957332;28;20023;-87
2023/06/15 10:33:41;;;;;;;4.35;2.60;;;;;;;-148.88;29.85;-17125.47;4957482;29;20023;-88
2023/06/15 10:36:22;;;;;;;5.20;2.30;;;;;;;-148.88;29.86;-17125.47;4958055;28;20406;-85
2023/06/15 10:39:03;;;;;;;5.13;2.42;;;;;;;-148.88;29.98;-17125.47;4956042;29;20034;-87
2023/06/15 10:41:29;;;;;;;5.63;2.55;;;;;;;-148.88;28.79;-17125.47;4957062;28;20027;-85
2023/06/15 10:43:57;;;;;;;4.72;2.63;;;;;;;-148.88;28.96;-17125.47;4940246;29;20122;-87
2023/06/15 10:46:28;;;;;;;4.55;2.88;;;;;;;-148.88;30.10;-17125.47;4955770;29;20031;-87
2023/06/15 10:48:54;;;;;;;5.05;2.70;;;;;;;-148.88;30.74;-17125.47;4956429;28;20038;-86
2023/06/15 10:51:25;;;;;;;5.40;2.50;;;;;;;-148.88;29.00;-17125.47;4956997;28;20134;-89
2023/06/15 10:53:50;;;;;;;7.35;2.70;;;;;;;-148.88;28.27;-17125.47;4957161;28;20034;-88
2023/06/15 10:56:27;;;;;;;3.65;2.38;;;;;;;-148.88;29.49;-17125.47;4956868;28;20035;-87
2023/06/15 10:59:07;;;;;;;5.47;2.58;;;;;;;-148.88;28.12;-17125.47;4957207;28;20549;-89
2023/06/15 11:01:33;;;;;;;5.82;2.45;;;;;;;-148.88;28.53;-17125.47;4957244;28;20039;-88
2023/06/15 11:04:28;;;;;;;7.07;2.67;;;;;;;-148.88;29.39;-17125.47;4955477;29;20073;-87
2023/06/15 11:06:58;;;;;;;5.28;2.40;;;;;;;-148.88;27.74;-17125.47;4957000;28;20038;-85
2023/06/15 11:09:31;;;;;;;4.40;2.42;;;;;;;-148.88;26.91;-17125.47;4955262;29;20031;-84